Time;durP1;ratioP1;P1;durP2;ratioP2;P2;SDS_P1;SDS_P2;PMS_P1;PMS_P2;Temp;Humidity;BMP_temperature;BMP_pressure;BME280_temperature;BME280_humidity;BME280_pressure;Samples;Min_cycle;Max_cycle;Signal;HPM_P1;HPM_P2
2024/04/15 00:01:47;;;;;;;;;;;18.50;70.50;;;;;;5400299;26;1824;-70
2024/04/15 00:04:13;;;;;;;;;;;18.50;70.60;;;;;;5395612;26;1448;-70
2024/04/15 00:06:38;;;;;;;;;;;18.50;70.60;;;;;;5395665;26;1654;-73
2024/04/15 00:09:05;;;;;;;;;;;18.50;70.50;;;;;;5394140;26;1353;-73
2024/04/15 00:11:30;;;;;;;;;;;18.50;70.50;;;;;;5396194;26;1457;-71
2024/04/15 00:13:56;;;;;;;;;;;18.50;70.50;;;;;;5394808;26;1651;-71
2024/04/15 00:16:21;;;;;;;;;;;18.50;70.60;;;;;;5392966;26;1864;-72
2024/04/15 00:18:47;;;;;;;;;;;18.50;70.60;;;;;;5392411;26;1841;-72
2024/04/15 00:21:12;;;;;;;;;;;18.50;70.50;;;;;;5393562;26;1861;-71
2024/04/15 00:23:38;;;;;;;;;;;18.50;70.60;;;;;;5395880;26;1813;-71
2024/04/15 00:26:03;;;;;;;;;;;18.50;70.50;;;;;;5394198;26;1471;-72
2024/04/15 00:28:29;;;;;;;;;;;18.50;70.60;;;;;;5399184;26;1745;-71
2024/04/15 00:30:54;;;;;;;;;;;18.50;70.50;;;;;;5398754;26;1910;-71
2024/04/15 00:33:20;;;;;;;;;;;18.50;70.50;;;;;;5394098;26;1758;-71
2024/04/15 00:35:45;;;;;;;;;;;18.50;70.60;;;;;;5392431;26;1462;-71
2024/04/15 00:38:11;;;;;;;;;;;18.50;70.60;;;;;;5386786;26;1916;-71
2024/04/15 00:40:36;;;;;;;;;;;18.50;70.60;;;;;;5395499;26;1860;-71
2024/04/15 00:43:02;;;;;;;;;;;18.50;71.30;;;;;;5403610;26;1765;-71
2024/04/15 00:45:31;;;;;;;;;;;18.50;70.60;;;;;;5396656;26;1792;-72
2024/04/15 00:47:57;;;;;;;;;;;18.50;70.60;;;;;;5394242;26;1875;-73
2024/04/15 00:50:22;;;;;;;;;;;18.50;70.60;;;;;;5397241;26;1943;-74
2024/04/15 00:52:48;;;;;;;;;;;18.50;70.60;;;;;;5373614;26;1392;-73
2024/04/15 00:55:13;;;;;;;;;;;18.50;70.60;;;;;;5398189;26;1866;-73
2024/04/15 00:57:40;;;;;;;;;;;18.50;70.60;;;;;;5392733;26;1894;-73
2024/04/15 01:00:06;;;;;;;;;;;18.50;70.60;;;;;;5401620;26;1837;-73
2024/04/15 01:02:32;;;;;;;;;;;18.50;70.60;;;;;;5402195;26;1792;-74
2024/04/15 01:04:57;;;;;;;;;;;18.50;70.60;;;;;;5396856;26;2018;-73
2024/04/15 01:07:23;;;;;;;;;;;18.50;70.60;;;;;;5366531;26;1786;-72
2024/04/15 01:09:48;;;;;;;;;;;18.50;70.60;;;;;;5392620;26;1920;-72
2024/04/15 01:12:14;;;;;;;;;;;18.50;70.60;;;;;;5377446;26;1436;-73
2024/04/15 01:14:39;;;;;;;;;;;18.50;70.60;;;;;;5398903;26;1781;-72
2024/04/15 01:17:05;;;;;;;;;;;18.50;70.60;;;;;;5394811;26;1405;-73
2024/04/15 01:19:30;;;;;;;;;;;18.50;70.60;;;;;;5392074;26;1755;-72
2024/04/15 01:21:56;;;;;;;;;;;18.50;70.60;;;;;;5391948;26;2027;-73
2024/04/15 01:24:21;;;;;;;;;;;18.50;70.60;;;;;;5395552;26;1866;-71
2024/04/15 01:26:47;;;;;;;;;;;18.50;70.60;;;;;;5392775;26;1742;-71
2024/04/15 01:29:12;;;;;;;;;;;18.50;70.60;;;;;;5394645;26;1853;-71
2024/04/15 01:31:38;;;;;;;;;;;18.50;70.60;;;;;;5397165;26;1762;-71
2024/04/15 01:34:03;;;;;;;;;;;18.50;70.60;;;;;;5392434;26;1724;-73
2024/04/15 01:36:29;;;;;;;;;;;18.50;70.60;;;;;;5395305;26;1399;-72
2024/04/15 01:38:54;;;;;;;;;;;18.50;70.60;;;;;;5396694;26;1653;-72
2024/04/15 01:41:20;;;;;;;;;;;18.50;70.60;;;;;;5392750;26;1821;-72
2024/04/15 01:43:45;;;;;;;;;;;18.50;70.60;;;;;;5390329;26;1953;-72
2024/04/15 01:46:11;;;;;;;;;;;18.50;70.60;;;;;;5393882;26;1622;-72
2024/04/15 01:48:36;;;;;;;;;;;18.50;70.60;;;;;;5397339;26;1571;-72
2024/04/15 01:51:02;;;;;;;;;;;18.50;70.60;;;;;;5395966;26;1772;-72
2024/04/15 01:53:27;;;;;;;;;;;18.50;70.60;;;;;;5399015;26;1741;-72
2024/04/15 01:55:52;;;;;;;;;;;18.50;70.60;;;;;;5397027;26;1776;-73
2024/04/15 01:58:18;;;;;;;;;;;18.50;70.60;;;;;;5393899;26;1664;-73
2024/04/15 02:00:43;;;;;;;;;;;18.50;70.60;;;;;;5397309;26;2020;-72
2024/04/15 02:03:09;;;;;;;;;;;18.50;70.60;;;;;;5404115;26;1764;-72
2024/04/15 02:05:34;;;;;;;;;;;18.50;70.60;;;;;;5391984;26;1854;-72
2024/04/15 02:08:00;;;;;;;;;;;18.50;70.60;;;;;;5403099;26;1887;-73
2024/04/15 02:10:25;;;;;;;;;;;18.40;70.60;;;;;;5399935;26;1776;-73
2024/04/15 02:12:51;;;;;;;;;;;18.50;70.60;;;;;;5396176;26;1877;-73
2024/04/15 02:15:16;;;;;;;;;;;18.50;70.60;;;;;;5395697;26;1854;-73
2024/04/15 02:17:41;;;;;;;;;;;18.50;70.60;;;;;;5391072;26;1946;-72
2024/04/15 02:20:07;;;;;;;;;;;18.50;70.60;;;;;;5402873;26;1825;-73
2024/04/15 02:22:33;;;;;;;;;;;18.50;70.60;;;;;;5398109;26;1682;-73
2024/04/15 02:24:58;;;;;;;;;;;18.50;70.60;;;;;;5393236;26;1637;-73
2024/04/15 02:27:24;;;;;;;;;;;18.50;70.60;;;;;;5395362;26;1862;-72
2024/04/15 02:29:49;;;;;;;;;;;18.50;71.40;;;;;;5390806;26;1746;-72
2024/04/15 02:32:15;;;;;;;;;;;18.50;70.70;;;;;;5398535;26;1891;-72
2024/04/15 02:34:41;;;;;;;;;;;18.50;70.70;;;;;;5389727;26;1849;-73
2024/04/15 02:37:06;;;;;;;;;;;18.50;70.70;;;;;;5396000;26;1767;-72
2024/04/15 02:39:32;;;;;;;;;;;18.50;70.60;;;;;;5397990;26;1800;-72
2024/04/15 02:41:57;;;;;;;;;;;18.50;70.60;;;;;;5393589;26;1861;-72
2024/04/15 02:44:23;;;;;;;;;;;18.50;70.70;;;;;;5373306;26;1854;-72
2024/04/15 02:46:48;;;;;;;;;;;18.40;70.60;;;;;;5390791;26;1428;-73
2024/04/15 02:49:14;;;;;;;;;;;18.50;70.70;;;;;;5392496;26;1453;-73
2024/04/15 02:51:39;;;;;;;;;;;18.50;70.70;;;;;;5395083;26;1458;-73
2024/04/15 02:54:05;;;;;;;;;;;18.50;70.70;;;;;;5399853;26;1328;-73
2024/04/15 02:56:30;;;;;;;;;;;18.50;70.70;;;;;;5392298;26;1546;-74
2024/04/15 02:58:56;;;;;;;;;;;18.50;70.70;;;;;;5396496;26;1338;-74
2024/04/15 03:01:21;;;;;;;;;;;18.50;70.70;;;;;;5392821;26;1821;-75
2024/04/15 03:03:47;;;;;;;;;;;18.50;70.70;;;;;;5395719;26;1451;-75
2024/04/15 03:06:12;;;;;;;;;;;18.50;70.70;;;;;;5371801;26;1866;-75
2024/04/15 03:08:38;;;;;;;;;;;18.50;70.70;;;;;;5388028;26;1909;-75
2024/04/15 03:11:08;;;;;;;;;;;18.50;70.70;;;;;;5395767;26;1668;-75
2024/04/15 03:13:33;;;;;;;;;;;18.50;70.70;;;;;;5391934;26;1803;-75
2024/04/15 03:15:58;;;;;;;;;;;18.50;70.70;;;;;;5392065;26;1913;-75
2024/04/15 03:18:24;;;;;;;;;;;18.40;70.60;;;;;;5392919;26;1930;-75
2024/04/15 03:20:49;;;;;;;;;;;18.50;70.70;;;;;;5393762;26;1927;-73
2024/04/15 03:23:15;;;;;;;;;;;18.50;70.70;;;;;;5397354;26;1944;-75
2024/04/15 03:25:40;;;;;;;;;;;18.40;70.60;;;;;;5399696;26;1829;-75
2024/04/15 03:28:06;;;;;;;;;;;18.50;70.70;;;;;;5394351;26;2083;-75
2024/04/15 03:30:31;;;;;;;;;;;18.50;70.70;;;;;;5408809;26;1891;-74
2024/04/15 03:32:57;;;;;;;;;;;18.50;70.70;;;;;;5400147;26;1897;-73
2024/04/15 03:35:22;;;;;;;;;;;18.50;70.70;;;;;;5396136;26;1746;-72
2024/04/15 03:37:47;;;;;;;;;;;18.50;70.70;;;;;;5392526;26;1865;-71
2024/04/15 03:40:13;;;;;;;;;;;18.50;70.70;;;;;;5391163;26;1867;-70
2024/04/15 03:42:38;;;;;;;;;;;18.50;70.70;;;;;;5394762;26;1756;-70
2024/04/15 03:45:04;;;;;;;;;;;18.50;70.70;;;;;;5399862;26;1861;-73
2024/04/15 03:47:29;;;;;;;;;;;18.50;70.70;;;;;;5399717;26;1887;-73
2024/04/15 03:49:55;;;;;;;;;;;18.50;70.70;;;;;;5397838;26;1600;-73
2024/04/15 03:52:20;;;;;;;;;;;18.40;70.60;;;;;;5406778;26;2042;-73
2024/04/15 03:54:46;;;;;;;;;;;18.50;70.70;;;;;;5397977;26;1830;-73
2024/04/15 03:57:11;;;;;;;;;;;18.50;70.70;;;;;;5377331;26;1809;-73
2024/04/15 03:59:37;;;;;;;;;;;18.50;70.70;;;;;;5401446;26;1837;-73
2024/04/15 04:02:02;;;;;;;;;;;18.50;70.70;;;;;;5395508;26;1861;-73
2024/04/15 04:04:31;;;;;;;;;;;18.40;70.60;;;;;;5397621;26;1812;-74
2024/04/15 04:07:00;;;;;;;;;;;18.50;70.70;;;;;;5404060;26;2413;-73
2024/04/15 04:09:26;;;;;;;;;;;18.40;70.60;;;;;;5398010;26;1809;-75
2024/04/15 04:11:52;;;;;;;;;;;18.40;70.60;;;;;;5397759;26;1841;-73
2024/04/15 04:14:18;;;;;;;;;;;18.50;70.70;;;;;;5396442;26;1934;-73
2024/04/15 04:16:43;;;;;;;;;;;18.50;70.70;;;;;;5392306;26;1733;-72
2024/04/15 04:19:09;;;;;;;;;;;18.40;70.60;;;;;;5418577;26;1592;-73
2024/04/15 04:21:34;;;;;;;;;;;18.40;70.60;;;;;;5393428;26;1856;-73
2024/04/15 04:24:00;;;;;;;;;;;18.50;70.70;;;;;;5391877;26;1706;-73
2024/04/15 04:26:25;;;;;;;;;;;18.50;70.70;;;;;;5396910;26;1927;-73
2024/04/15 04:28:51;;;;;;;;;;;18.50;70.70;;;;;;5408571;26;1456;-73
2024/04/15 04:31:16;;;;;;;;;;;18.50;70.70;;;;;;5390887;26;1924;-73
2024/04/15 04:33:42;;;;;;;;;;;18.50;70.70;;;;;;5395653;26;1930;-73
2024/04/15 04:36:07;;;;;;;;;;;18.40;71.40;;;;;;5395221;26;1924;-74
2024/04/15 04:38:32;;;;;;;;;;;18.40;70.60;;;;;;5393596;26;1886;-75
2024/04/15 04:40:58;;;;;;;;;;;18.40;70.60;;;;;;5396547;26;1868;-74
2024/04/15 04:43:24;;;;;;;;;;;18.40;70.60;;;;;;5372296;26;1918;-75
2024/04/15 04:45:49;;;;;;;;;;;18.50;70.70;;;;;;5389117;26;1390;-74
2024/04/15 04:48:15;;;;;;;;;;;18.50;70.70;;;;;;5367846;26;1913;-74
2024/04/15 04:50:40;;;;;;;;;;;18.40;70.60;;;;;;5397021;26;1940;-75
2024/04/15 04:53:06;;;;;;;;;;;18.40;70.60;;;;;;5398384;26;1830;-74
2024/04/15 04:55:36;;;;;;;;;;;18.50;70.70;;;;;;5393086;26;1428;-75
2024/04/15 04:58:13;;;;;;;;;;;18.50;70.70;;;;;;5391047;26;1390;-72
2024/04/15 05:00:38;;;;;;;;;;;18.50;70.70;;;;;;5395698;26;1829;-71
2024/04/15 05:03:04;;;;;;;;;;;18.50;70.70;;;;;;5391990;26;1899;-72
2024/04/15 05:05:32;;;;;;;;;;;18.50;70.70;;;;;;5393127;26;1801;-73
2024/04/15 05:07:58;;;;;;;;;;;18.50;70.70;;;;;;5400533;26;1781;-74
2024/04/15 05:10:23;;;;;;;;;;;18.40;70.70;;;;;;5397523;26;1046;-74
2024/04/15 05:12:48;;;;;;;;;;;18.40;70.70;;;;;;5411573;26;1582;-74
2024/04/15 05:15:14;;;;;;;;;;;18.40;70.60;;;;;;5411041;26;1445;-74
2024/04/15 05:17:40;;;;;;;;;;;18.40;70.60;;;;;;5406356;26;1487;-73
2024/04/15 05:20:06;;;;;;;;;;;18.50;71.40;;;;;;5399682;26;1825;-73
2024/04/15 05:22:31;;;;;;;;;;;18.50;70.60;;;;;;5407244;26;1519;-70
2024/04/15 05:24:57;;;;;;;;;;;18.50;70.50;;;;;;5400198;26;2509;-74
2024/04/15 05:27:22;;;;;;;;;;;18.50;70.40;;;;;;5395347;26;1389;-75
2024/04/15 05:29:48;;;;;;;;;;;18.50;70.40;;;;;;5395814;26;1865;-72
2024/04/15 05:32:13;;;;;;;;;;;18.50;70.30;;;;;;5395671;26;1407;-71
2024/04/15 05:34:39;;;;;;;;;;;18.60;70.20;;;;;;5397742;26;1549;-72
2024/04/15 05:37:07;;;;;;;;;;;18.60;70.10;;;;;;5397781;26;1266;-73
2024/04/15 05:39:33;;;;;;;;;;;18.60;70.10;;;;;;5393063;26;1279;-73
2024/04/15 05:41:58;;;;;;;;;;;18.60;70.00;;;;;;5392504;26;1893;-71
2024/04/15 05:44:24;;;;;;;;;;;18.70;70.00;;;;;;5393800;26;1387;-71
2024/04/15 05:46:50;;;;;;;;;;;18.60;69.80;;;;;;5389667;26;1968;-71
2024/04/15 05:49:15;;;;;;;;;;;18.70;69.90;;;;;;5400376;26;1780;-71
2024/04/15 05:51:41;;;;;;;;;;;18.70;69.80;;;;;;5398209;26;1914;-72
2024/04/15 05:54:06;;;;;;;;;;;18.70;69.70;;;;;;5388366;26;1132;-72
2024/04/15 05:56:32;;;;;;;;;;;18.70;69.70;;;;;;5398566;26;1858;-72
2024/04/15 05:58:57;;;;;;;;;;;18.70;69.60;;;;;;5391576;26;1888;-72
2024/04/15 06:01:23;;;;;;;;;;;18.70;69.60;;;;;;5392730;26;1833;-72
2024/04/15 06:03:48;;;;;;;;;;;18.70;69.50;;;;;;5394520;26;2146;-72
2024/04/15 06:06:14;;;;;;;;;;;18.70;70.20;;;;;;5395974;26;1435;-73
2024/04/15 06:08:39;;;;;;;;;;;18.70;69.40;;;;;;5397100;26;1449;-72
2024/04/15 06:11:05;;;;;;;;;;;18.80;69.50;;;;;;5398605;26;1288;-72
2024/04/15 06:13:30;;;;;;;;;;;18.80;69.50;;;;;;5374034;26;1805;-72
2024/04/15 06:15:56;;;;;;;;;;;18.80;70.10;;;;;;5396722;26;1888;-72
2024/04/15 06:18:21;;;;;;;;;;;18.80;69.40;;;;;;5398845;26;1345;-72
2024/04/15 06:20:46;;;;;;;;;;;18.80;69.40;;;;;;5405506;26;1829;-73
2024/04/15 06:23:13;;;;;;;;;;;18.80;69.40;;;;;;5396057;26;1561;-74
2024/04/15 06:25:38;;;;;;;;;;;18.80;69.40;;;;;;5395388;26;1806;-72
2024/04/15 06:28:04;;;;;;;;;;;18.80;69.40;;;;;;5396377;26;1764;-71
2024/04/15 06:30:29;;;;;;;;;;;18.80;69.30;;;;;;5402522;26;1785;-70
2024/04/15 06:32:55;;;;;;;;;;;18.80;69.40;;;;;;5397381;26;1455;-70
2024/04/15 06:35:20;;;;;;;;;;;18.80;69.30;;;;;;5392310;26;1466;-70
2024/04/15 06:37:46;;;;;;;;;;;18.80;69.30;;;;;;5395058;26;1743;-70
2024/04/15 06:40:11;;;;;;;;;;;18.80;69.40;;;;;;5390283;26;1973;-70
2024/04/15 06:42:37;;;;;;;;;;;18.80;69.40;;;;;;5394452;26;1806;-70
2024/04/15 06:45:02;;;;;;;;;;;18.80;69.40;;;;;;5395890;26;1905;-68
2024/04/15 06:47:28;;;;;;;;;;;18.80;69.40;;;;;;5391513;26;1768;-70
2024/04/15 06:49:53;;;;;;;;;;;18.80;69.40;;;;;;5396912;26;1765;-73
2024/04/15 06:52:19;;;;;;;;;;;18.80;69.40;;;;;;5389817;26;1776;-72
2024/04/15 06:54:44;;;;;;;;;;;18.80;69.40;;;;;;5407030;26;1758;-72
2024/04/15 06:57:10;;;;;;;;;;;18.80;69.40;;;;;;5395831;26;1996;-73
2024/04/15 06:59:35;;;;;;;;;;;18.80;69.40;;;;;;5393555;26;1668;-73
2024/04/15 07:02:00;;;;;;;;;;;18.80;69.40;;;;;;5393583;26;1821;-73
2024/04/15 07:04:26;;;;;;;;;;;18.80;69.40;;;;;;5395068;26;1826;-73
2024/04/15 07:06:51;;;;;;;;;;;18.80;69.50;;;;;;5392806;26;1767;-72
2024/04/15 07:09:17;;;;;;;;;;;18.80;69.50;;;;;;5397748;26;1772;-72
2024/04/15 07:11:42;;;;;;;;;;;18.70;69.40;;;;;;5394130;26;1834;-71
2024/04/15 07:14:08;;;;;;;;;;;18.80;69.50;;;;;;5393089;26;1584;-72
2024/04/15 07:16:33;;;;;;;;;;;18.70;69.40;;;;;;5394677;26;1777;-72
2024/04/15 07:18:59;;;;;;;;;;;18.80;69.50;;;;;;5394457;26;1451;-72
2024/04/15 07:21:25;;;;;;;;;;;18.80;69.50;;;;;;5396084;26;1826;-72
2024/04/15 07:23:50;;;;;;;;;;;18.70;69.50;;;;;;5398001;26;2120;-72
2024/04/15 07:26:15;;;;;;;;;;;18.70;69.50;;;;;;5396100;26;1938;-72
2024/04/15 07:28:41;;;;;;;;;;;18.80;69.60;;;;;;5393815;26;1769;-71
2024/04/15 07:31:07;;;;;;;;;;;18.70;69.50;;;;;;5392397;26;1548;-71
2024/04/15 07:33:32;;;;;;;;;;;18.70;69.60;;;;;;5395779;26;1752;-71
2024/04/15 07:35:59;;;;;;;;;;;18.70;69.60;;;;;;5376639;26;1885;-72
2024/04/15 07:38:24;;;;;;;;;;;18.70;69.60;;;;;;5397064;26;1932;-71
2024/04/15 07:40:50;;;;;;;;;;;18.70;69.60;;;;;;5398925;26;1883;-71
2024/04/15 07:43:15;;;;;;;;;;;18.70;69.60;;;;;;5398848;26;1890;-71
2024/04/15 07:45:41;;;;;;;;;;;18.70;69.60;;;;;;5394027;26;1781;-71
2024/04/15 07:48:06;;;;;;;;;;;18.70;69.60;;;;;;5393942;26;1424;-71
2024/04/15 07:50:32;;;;;;;;;;;18.70;69.60;;;;;;5392138;26;1695;-72
2024/04/15 07:52:58;;;;;;;;;;;18.70;69.70;;;;;;5393553;26;1928;-73
2024/04/15 07:55:24;;;;;;;;;;;18.70;69.70;;;;;;5395214;26;2013;-73
2024/04/15 07:57:49;;;;;;;;;;;18.70;69.70;;;;;;5397576;26;1908;-73
2024/04/15 08:00:15;;;;;;;;;;;18.70;69.70;;;;;;5386893;26;2033;-72
2024/04/15 08:02:40;;;;;;;;;;;18.70;69.70;;;;;;5399376;26;1842;-73
2024/04/15 08:05:06;;;;;;;;;;;18.70;69.70;;;;;;5395702;26;1992;-73
2024/04/15 08:07:31;;;;;;;;;;;18.70;69.70;;;;;;5396253;26;1838;-73
2024/04/15 08:09:58;;;;;;;;;;;18.70;69.80;;;;;;5393041;26;1463;-73
2024/04/15 08:12:23;;;;;;;;;;;18.70;69.80;;;;;;5401764;26;1918;-73
2024/04/15 08:14:49;;;;;;;;;;;18.70;69.80;;;;;;5396015;26;1753;-73
2024/04/15 08:17:14;;;;;;;;;;;18.70;69.80;;;;;;5394346;26;1769;-72
2024/04/15 08:19:40;;;;;;;;;;;18.60;69.70;;;;;;5392969;26;1865;-73
2024/04/15 08:22:05;;;;;;;;;;;18.70;69.80;;;;;;5393974;26;1889;-72
2024/04/15 08:24:31;;;;;;;;;;;18.70;69.80;;;;;;5392112;26;1805;-72
2024/04/15 08:26:57;;;;;;;;;;;18.70;69.80;;;;;;5392202;26;2194;-72
2024/04/15 08:29:23;;;;;;;;;;;18.60;69.70;;;;;;5390947;26;1432;-72
2024/04/15 08:31:48;;;;;;;;;;;18.60;69.70;;;;;;5391835;26;1668;-71
2024/04/15 08:34:14;;;;;;;;;;;18.70;69.80;;;;;;5392722;26;1394;-71
2024/04/15 08:36:39;;;;;;;;;;;18.60;69.80;;;;;;5391945;26;1293;-72
2024/04/15 08:39:05;;;;;;;;;;;18.70;69.80;;;;;;5395891;26;1489;-71
2024/04/15 08:41:35;;;;;;;;;;;18.70;69.90;;;;;;5404299;26;1848;-73
2024/04/15 08:44:05;;;;;;;;;;;18.70;69.90;;;;;;5391182;26;1248;-73
2024/04/15 08:46:34;;;;;;;;;;;18.70;69.90;;;;;;5393005;26;1385;-73
2024/04/15 08:49:00;;;;;;;;;;;18.60;69.80;;;;;;5399474;26;1888;-73
2024/04/15 08:51:25;;;;;;;;;;;18.70;69.90;;;;;;5396559;26;1730;-73
2024/04/15 08:53:51;;;;;;;;;;;18.60;69.80;;;;;;5378674;26;1901;-73
2024/04/15 08:56:16;;;;;;;;;;;18.60;70.60;;;;;;5396355;26;1456;-72
2024/04/15 08:58:42;;;;;;;;;;;18.60;69.90;;;;;;5371204;26;1904;-71
2024/04/15 09:01:08;;;;;;;;;;;18.60;69.90;;;;;;5395480;26;1825;-73
2024/04/15 09:03:33;;;;;;;;;;;18.60;69.90;;;;;;5399489;26;1814;-71
2024/04/15 09:05:59;;;;;;;;;;;18.60;69.90;;;;;;5399169;26;1631;-72
2024/04/15 09:08:24;;;;;;;;;;;18.60;69.90;;;;;;5363673;26;2451;-71
2024/04/15 09:10:50;;;;;;;;;;;18.60;69.90;;;;;;5393746;26;1985;-71
2024/04/15 09:13:15;;;;;;;;;;;18.60;69.90;;;;;;5391754;26;1871;-71
2024/04/15 09:15:41;;;;;;;;;;;18.60;69.90;;;;;;5363840;26;1779;-71
2024/04/15 09:18:07;;;;;;;;;;;18.60;70.00;;;;;;5387613;26;1878;-71
2024/04/15 09:20:32;;;;;;;;;;;18.60;69.90;;;;;;5365810;26;2526;-72
2024/04/15 09:23:00;;;;;;;;;;;18.60;70.00;;;;;;5389886;26;3299;-72
2024/04/15 09:25:25;;;;;;;;;;;18.60;70.00;;;;;;5398241;26;1995;-73
2024/04/15 09:27:54;;;;;;;;;;;18.60;70.00;;;;;;5392393;26;1701;-72
2024/04/15 09:30:20;;;;;;;;;;;18.60;70.00;;;;;;5397322;26;2034;-72
2024/04/15 09:32:45;;;;;;;;;;;18.60;70.00;;;;;;5388035;26;2448;-70
2024/04/15 09:35:11;;;;;;;;;;;18.60;70.00;;;;;;5380058;26;2481;-70
2024/04/15 09:37:36;;;;;;;;;;;18.60;70.00;;;;;;5388849;26;1817;-71
2024/04/15 09:40:03;;;;;;;;;;;18.60;70.00;;;;;;5396264;26;1523;-70
2024/04/15 09:42:28;;;;;;;;;;;18.60;70.00;;;;;;5392008;26;1833;-70
2024/04/15 09:44:54;;;;;;;;;;;18.60;70.00;;;;;;5392030;26;1634;-70
2024/04/15 09:47:19;;;;;;;;;;;18.60;70.00;;;;;;5395086;26;1508;-70
2024/04/15 09:49:46;;;;;;;;;;;18.60;70.00;;;;;;5397732;26;1888;-70
2024/04/15 09:52:22;;;;;;;;;;;18.60;70.10;;;;;;5399047;26;1456;-70
2024/04/15 09:54:50;;;;;;;;;;;18.60;70.10;;;;;;5375746;26;2605;-70
2024/04/15 09:57:19;;;;;;;;;;;18.60;70.10;;;;;;5396081;26;1409;-71
2024/04/15 09:59:45;;;;;;;;;;;18.60;70.10;;;;;;5395526;26;1934;-70
2024/04/15 10:02:21;;;;;;;;;;;18.60;70.10;;;;;;5370220;26;1884;-70
2024/04/15 10:04:47;;;;;;;;;;;18.60;70.10;;;;;;5396730;26;1949;-72
2024/04/15 10:07:13;;;;;;;;;;;18.60;70.10;;;;;;5390428;26;1469;-71
2024/04/15 10:09:38;;;;;;;;;;;18.60;70.10;;;;;;5399424;26;1921;-72
2024/04/15 10:12:04;;;;;;;;;;;18.60;70.10;;;;;;5378648;26;1764;-72
2024/04/15 10:14:30;;;;;;;;;;;18.60;70.10;;;;;;5404221;26;1849;-73
2024/04/15 10:16:55;;;;;;;;;;;18.60;70.10;;;;;;5378455;26;1922;-72
2024/04/15 10:19:24;;;;;;;;;;;18.60;70.10;;;;;;5391913;26;1888;-73
2024/04/15 10:21:49;;;;;;;;;;;18.60;70.10;;;;;;5379904;26;2145;-73
2024/04/15 10:24:15;;;;;;;;;;;18.60;70.10;;;;;;5395144;26;1596;-73
2024/04/15 10:26:44;;;;;;;;;;;18.60;70.10;;;;;;5391986;26;1814;-73
2024/04/15 10:29:16;;;;;;;;;;;18.60;70.20;;;;;;5400734;26;1682;-73
2024/04/15 10:31:42;;;;;;;;;;;18.60;70.20;;;;;;5399851;26;1688;-73
2024/04/15 10:34:07;;;;;;;;;;;18.60;70.20;;;;;;5394969;26;1898;-73
2024/04/15 10:36:36;;;;;;;;;;;18.50;70.10;;;;;;5392599;26;2453;-73
2024/04/15 10:39:04;;;;;;;;;;;18.60;70.20;;;;;;5392706;26;1683;-73
2024/04/15 10:41:30;;;;;;;;;;;18.50;70.20;;;;;;5390617;26;1849;-73
2024/04/15 10:43:55;;;;;;;;;;;18.60;70.20;;;;;;5402120;26;1836;-72
2024/04/15 10:46:20;;;;;;;;;;;18.60;70.20;;;;;;5391738;26;1873;-73
2024/04/15 10:48:46;;;;;;;;;;;18.60;70.20;;;;;;5400207;26;1925;-72
2024/04/15 10:51:11;;;;;;;;;;;18.60;70.20;;;;;;5395513;26;1466;-72
2024/04/15 10:53:37;;;;;;;;;;;18.60;70.20;;;;;;5395860;26;1612;-72
2024/04/15 10:56:02;;;;;;;;;;;18.60;70.20;;;;;;5393081;26;1744;-72
2024/04/15 10:58:28;;;;;;;;;;;18.60;70.30;;;;;;5400619;26;1966;-72
2024/04/15 11:00:55;;;;;;;;;;;18.60;70.20;;;;;;5391707;26;1863;-72
2024/04/15 11:03:20;;;;;;;;;;;18.60;70.20;;;;;;5401813;26;1461;-72
2024/04/15 11:05:46;;;;;;;;;;;18.60;70.20;;;;;;5369896;26;1784;-72
2024/04/15 11:08:15;;;;;;;;;;;18.50;70.20;;;;;;5395748;26;1304;-72
2024/04/15 11:10:40;;;;;;;;;;;18.60;70.20;;;;;;5395041;26;1871;-72
2024/04/15 11:13:12;;;;;;;;;;;18.60;70.30;;;;;;5398841;26;1495;-72
2024/04/15 11:15:39;;;;;;;;;;;18.60;70.30;;;;;;5399350;26;1734;-72
2024/04/15 11:18:04;;;;;;;;;;;18.50;70.20;;;;;;5372111;26;1878;-71
2024/04/15 11:20:30;;;;;;;;;;;18.60;70.30;;;;;;5404310;26;1826;-71
2024/04/15 11:22:55;;;;;;;;;;;18.50;70.20;;;;;;5407720;26;1584;-71
2024/04/15 11:25:21;;;;;;;;;;;18.60;70.30;;;;;;5399657;26;1511;-72
2024/04/15 11:27:50;;;;;;;;;;;18.50;70.20;;;;;;5400075;26;1485;-72
2024/04/15 11:30:20;;;;;;;;;;;18.60;70.30;;;;;;5403895;26;1029;-71
2024/04/15 11:32:46;;;;;;;;;;;18.50;70.30;;;;;;5402837;26;1539;-71
2024/04/15 11:35:11;;;;;;;;;;;18.50;70.30;;;;;;5405878;26;1659;-72
2024/04/15 11:37:37;;;;;;;;;;;18.50;70.30;;;;;;5398171;26;1191;-72
2024/04/15 11:40:02;;;;;;;;;;;18.50;70.30;;;;;;5396557;26;1247;-71
2024/04/15 11:42:28;;;;;;;;;;;18.50;70.30;;;;;;5400128;26;1861;-71
2024/04/15 11:44:53;;;;;;;;;;;18.50;70.30;;;;;;5399839;26;1117;-72
2024/04/15 11:47:19;;;;;;;;;;;18.50;70.30;;;;;;5404926;26;1151;-71
2024/04/15 11:49:45;;;;;;;;;;;18.50;70.30;;;;;;5390502;26;1534;-71
2024/04/15 11:52:10;;;;;;;;;;;18.50;70.30;;;;;;5381414;26;1817;-71
2024/04/15 11:54:39;;;;;;;;;;;18.50;70.30;;;;;;5392347;26;979;-71
2024/04/15 11:57:04;;;;;;;;;;;18.50;70.30;;;;;;5399151;26;1940;-71
2024/04/15 11:59:30;;;;;;;;;;;18.60;70.30;;;;;;5401997;26;1312;-71
2024/04/15 12:01:55;;;;;;;;;;;18.50;71.00;;;;;;5400325;26;1817;-71
2024/04/15 12:04:21;;;;;;;;;;;18.50;70.30;;;;;;5394510;26;1420;-71
2024/04/15 12:06:46;;;;;;;;;;;18.50;70.30;;;;;;5399495;26;1966;-71
2024/04/15 12:09:12;;;;;;;;;;;18.50;70.30;;;;;;5393704;26;1545;-72
2024/04/15 12:11:37;;;;;;;;;;;18.50;70.30;;;;;;5397944;26;1844;-71
2024/04/15 12:14:03;;;;;;;;;;;18.50;70.30;;;;;;5394806;26;1899;-71
2024/04/15 12:16:28;;;;;;;;;;;18.50;70.30;;;;;;5398252;26;1927;-71
2024/04/15 12:18:54;;;;;;;;;;;18.50;70.30;;;;;;5390573;26;1850;-71
2024/04/15 12:21:19;;;;;;;;;;;18.50;70.30;;;;;;5389580;26;1817;-71
2024/04/15 12:23:45;;;;;;;;;;;18.50;70.30;;;;;;5395903;26;1374;-71
2024/04/15 12:26:10;;;;;;;;;;;18.50;70.30;;;;;;5401658;26;1569;-71
2024/04/15 12:28:36;;;;;;;;;;;18.50;70.30;;;;;;5394704;26;1737;-71
2024/04/15 12:31:01;;;;;;;;;;;18.50;70.30;;;;;;5386462;26;1826;-71
2024/04/15 12:33:27;;;;;;;;;;;18.50;70.30;;;;;;5395062;26;1321;-71
2024/04/15 12:35:52;;;;;;;;;;;18.50;70.30;;;;;;5390611;26;1835;-71
2024/04/15 12:38:18;;;;;;;;;;;18.50;70.30;;;;;;5401472;26;1699;-72
2024/04/15 12:40:43;;;;;;;;;;;18.50;70.30;;;;;;5394908;26;1868;-72
2024/04/15 12:43:09;;;;;;;;;;;18.50;70.30;;;;;;5396749;26;1601;-72
2024/04/15 12:45:34;;;;;;;;;;;18.50;70.30;;;;;;5393294;26;1691;-71
2024/04/15 12:48:00;;;;;;;;;;;18.50;70.30;;;;;;5390839;26;1795;-72
2024/04/15 12:50:26;;;;;;;;;;;18.50;70.30;;;;;;5391854;26;1570;-70
2024/04/15 12:52:52;;;;;;;;;;;18.50;70.30;;;;;;5396512;26;1474;-71
2024/04/15 12:55:18;;;;;;;;;;;18.50;70.30;;;;;;5398193;26;1785;-71
2024/04/15 12:57:43;;;;;;;;;;;18.50;70.30;;;;;;5406910;26;1274;-71
2024/04/15 13:00:09;;;;;;;;;;;18.50;70.30;;;;;;5373122;26;1920;-71
2024/04/15 13:02:38;;;;;;;;;;;18.50;70.40;;;;;;5396406;26;1830;-71
2024/04/15 13:05:09;;;;;;;;;;;18.50;70.30;;;;;;5391111;26;1489;-71
2024/04/15 13:07:35;;;;;;;;;;;18.50;70.30;;;;;;5400532;26;1266;-71
2024/04/15 13:10:01;;;;;;;;;;;18.50;70.40;;;;;;5401866;26;2039;-71
2024/04/15 13:12:26;;;;;;;;;;;18.50;70.40;;;;;;5402212;26;1752;-71
2024/04/15 13:14:52;;;;;;;;;;;18.50;70.30;;;;;;5396878;26;1683;-72
2024/04/15 13:17:17;;;;;;;;;;;18.50;70.30;;;;;;5392215;26;1743;-72
2024/04/15 13:19:43;;;;;;;;;;;18.50;70.40;;;;;;5395368;26;1680;-71
2024/04/15 13:22:08;;;;;;;;;;;18.50;70.40;;;;;;5394276;26;1876;-71
2024/04/15 13:24:33;;;;;;;;;;;18.50;70.40;;;;;;5396971;26;1803;-70
2024/04/15 13:27:00;;;;;;;;;;;18.50;70.40;;;;;;5395722;26;1481;-70
2024/04/15 13:29:26;;;;;;;;;;;18.50;70.40;;;;;;5397514;26;1804;-70
2024/04/15 13:31:51;;;;;;;;;;;18.50;70.40;;;;;;5396533;26;1743;-70
2024/04/15 13:34:17;;;;;;;;;;;18.50;70.40;;;;;;5392477;26;1873;-72
2024/04/15 13:36:42;;;;;;;;;;;18.50;70.40;;;;;;5400854;26;2015;-72
2024/04/15 13:39:09;;;;;;;;;;;18.50;70.40;;;;;;5396803;26;1986;-72
2024/04/15 13:41:34;;;;;;;;;;;18.50;70.40;;;;;;5397910;26;1854;-72
2024/04/15 13:44:00;;;;;;;;;;;18.50;70.40;;;;;;5396662;26;1884;-72
2024/04/15 13:46:25;;;;;;;;;;;18.50;70.40;;;;;;5395291;26;1892;-73
2024/04/15 13:48:51;;;;;;;;;;;18.50;70.40;;;;;;5394646;26;1811;-73
2024/04/15 13:51:16;;;;;;;;;;;18.50;70.40;;;;;;5397364;26;1782;-72
2024/04/15 13:53:42;;;;;;;;;;;18.50;70.40;;;;;;5394673;26;1825;-72
2024/04/15 13:56:07;;;;;;;;;;;18.50;70.40;;;;;;5395198;26;1565;-71
2024/04/15 13:58:33;;;;;;;;;;;18.50;70.40;;;;;;5399457;26;1590;-72
2024/04/15 14:00:58;;;;;;;;;;;18.50;70.40;;;;;;5398291;26;2020;-72
2024/04/15 14:03:24;;;;;;;;;;;18.50;70.40;;;;;;5390414;26;1860;-73
2024/04/15 14:05:50;;;;;;;;;;;18.50;70.40;;;;;;5408522;26;1860;-72
2024/04/15 14:08:15;;;;;;;;;;;18.50;70.40;;;;;;5404246;26;1380;-72
2024/04/15 14:10:41;;;;;;;;;;;18.50;70.40;;;;;;5367071;26;1596;-70
2024/04/15 14:13:06;;;;;;;;;;;18.50;70.40;;;;;;5397921;26;1250;-70
2024/04/15 14:15:32;;;;;;;;;;;18.50;70.40;;;;;;5394963;26;1248;-72
2024/04/15 14:17:57;;;;;;;;;;;18.50;70.40;;;;;;5397373;26;1344;-71
2024/04/15 14:20:23;;;;;;;;;;;18.50;70.50;;;;;;5397002;26;1861;-71
2024/04/15 14:22:49;;;;;;;;;;;18.50;70.40;;;;;;5396880;26;1480;-72